Time;durP1;ratioP1;P1;durP2;ratioP2;P2;SDS_P1;SDS_P2;PMS_P1;PMS_P2;Temp;Humidity;BMP_temperature;BMP_pressure;BME280_temperature;BME280_humidity;BME280_pressure;Samples;Min_cycle;Max_cycle;Signal;HPM_P1;HPM_P2
2022/08/19 00:01:24;;;;;;;2.80;1.57;;;22.10;99.90;;;;;;5034892;28;20182;-81
2022/08/19 00:03:49;;;;;;;2.90;2.47;;;22.00;99.90;;;;;;5032427;28;20179;-80
2022/08/19 00:06:15;;;;;;;1.80;1.70;;;22.00;99.90;;;;;;5035775;28;20268;-81
2022/08/19 00:08:40;;;;;;;1.20;1.10;;;22.10;99.90;;;;;;5032357;28;20214;-80
2022/08/19 00:11:07;;;;;;;3.70;1.13;;;22.30;99.90;;;;;;5031222;28;20735;-80
2022/08/19 00:13:33;;;;;;;1.30;1.20;;;22.40;99.90;;;;;;5032687;28;20285;-81
2022/08/19 00:15:59;;;;;;;2.10;1.27;;;22.40;99.90;;;;;;5033053;28;20210;-80
2022/08/19 00:18:25;;;;;;;1.60;1.50;;;22.40;99.90;;;;;;5036876;28;20588;-80
2022/08/19 00:20:51;;;;;;;2.40;1.60;;;22.40;99.90;;;;;;5035135;28;20176;-81
2022/08/19 00:23:16;;;;;;;1.83;1.20;;;22.40;99.90;;;;;;5035838;28;20234;-80
2022/08/19 00:25:42;;;;;;;3.23;1.40;;;22.40;99.90;;;;;;5035380;28;20227;-81
2022/08/19 00:28:07;;;;;;;2.30;1.70;;;22.50;99.90;;;;;;5040596;28;20252;-81
2022/08/19 00:30:33;;;;;;;5.77;1.97;;;22.50;99.90;;;;;;5034468;28;20197;-80
2022/08/19 00:32:59;;;;;;;1.77;1.50;;;22.70;99.90;;;;;;5033225;28;20186;-81
2022/08/19 00:35:27;;;;;;;3.00;1.50;;;22.70;99.90;;;;;;5031052;28;20185;-81
2022/08/19 00:37:53;;;;;;;6.53;2.83;;;22.50;99.90;;;;;;5031559;28;20218;-80
2022/08/19 00:40:19;;;;;;;3.07;2.07;;;22.50;99.90;;;;;;5032203;28;20190;-81
2022/08/19 00:42:45;;;;;;;2.30;1.70;;;22.40;99.90;;;;;;5031145;28;20184;-81
2022/08/19 00:45:20;;;;;;;2.03;1.90;;;22.30;99.90;;;;;;5034835;28;20189;-81
2022/08/19 00:47:46;;;;;;;2.70;2.10;;;22.30;99.90;;;;;;5032085;28;20683;-80
2022/08/19 00:50:15;;;;;;;2.77;1.73;;;22.30;99.90;;;;;;5033920;28;20332;-80
2022/08/19 00:52:45;;;;;;;1.97;1.43;;;22.30;99.90;;;;;;5033910;28;20198;-80
2022/08/19 00:55:14;;;;;;;2.10;1.90;;;22.10;99.90;;;;;;5035899;28;20175;-81
2022/08/19 00:57:44;;;;;;;3.30;2.37;;;22.00;99.90;;;;;;5033595;28;20209;-80
2022/08/19 01:00:13;;;;;;;3.07;1.63;;;21.90;99.90;;;;;;5033458;28;20174;-80
2022/08/19 01:02:40;;;;;;;1.90;1.67;;;21.80;99.90;;;;;;5030383;28;20178;-80
2022/08/19 01:05:11;;;;;;;1.57;1.43;;;21.80;99.90;;;;;;5035361;28;20547;-81
2022/08/19 01:07:39;;;;;;;2.17;1.50;;;21.80;99.90;;;;;;5034346;28;20680;-81
2022/08/19 01:10:12;;;;;;;1.83;1.63;;;21.80;99.90;;;;;;5029853;28;20553;-80
2022/08/19 01:12:38;;;;;;;2.40;2.17;;;21.80;99.90;;;;;;5036932;28;20213;-81
2022/08/19 01:15:07;;;;;;;2.20;1.67;;;21.70;99.90;;;;;;5028471;28;20189;-81
2022/08/19 01:17:34;;;;;;;4.43;2.37;;;21.70;99.90;;;;;;5029996;28;20203;-81
2022/08/19 01:20:00;;;;;;;4.67;1.80;;;21.70;99.90;;;;;;5030944;28;20178;-81
2022/08/19 01:22:41;;;;;;;0.87;0.87;;;21.70;99.90;;;;;;5025130;28;20181;-80
2022/08/19 01:25:07;;;;;;;1.77;1.67;;;21.80;99.90;;;;;;5034217;28;20182;-80
2022/08/19 01:27:45;;;;;;;1.53;1.43;;;21.80;99.90;;;;;;5018100;28;20233;-81
2022/08/19 01:30:18;;;;;;;2.70;1.77;;;21.80;99.90;;;;;;5029297;28;20182;-80
2022/08/19 01:32:43;;;;;;;2.93;2.60;;;21.70;99.90;;;;;;5028485;28;20183;-81
2022/08/19 01:35:10;;;;;;;2.07;1.77;;;21.70;99.90;;;;;;5034860;28;20191;-81
2022/08/19 01:37:49;;;;;;;4.80;1.33;;;21.70;99.90;;;;;;5034208;28;20204;-80
2022/08/19 01:40:16;;;;;;;1.93;1.83;;;21.80;99.90;;;;;;5032774;28;20231;-80
2022/08/19 01:42:42;;;;;;;2.67;2.47;;;21.80;99.90;;;;;;5032943;28;20265;-80
2022/08/19 01:45:08;;;;;;;3.90;2.17;;;21.60;99.90;;;;;;5032557;28;20430;-81
2022/08/19 01:47:37;;;;;;;1.90;1.80;;;21.50;99.90;;;;;;5028733;28;20183;-80
2022/08/19 01:50:07;;;;;;;3.67;2.53;;;21.60;99.90;;;;;;5038787;28;20205;-80
2022/08/19 01:52:36;;;;;;;2.57;1.20;;;21.50;99.90;;;;;;5038146;28;20663;-81
2022/08/19 01:55:02;;;;;;;5.00;1.63;;;21.50;99.90;;;;;;5036916;28;20529;-81
2022/08/19 01:57:27;;;;;;;1.80;1.63;;;21.60;99.90;;;;;;5035039;28;20205;-81
2022/08/19 01:59:53;;;;;;;1.97;1.70;;;21.50;99.90;;;;;;5035392;28;20177;-81
2022/08/19 02:02:19;;;;;;;1.03;1.00;;;21.50;99.90;;;;;;5036289;28;20675;-81
2022/08/19 02:04:45;;;;;;;1.67;1.57;;;21.50;99.90;;;;;;5032123;28;20178;-80
2022/08/19 02:07:11;;;;;;;5.87;1.37;;;21.50;99.90;;;;;;5036128;28;20202;-81
2022/08/19 02:09:38;;;;;;;3.33;1.77;;;21.60;99.90;;;;;;5039027;28;20269;-80
2022/08/19 02:12:04;;;;;;;1.77;1.63;;;21.60;99.90;;;;;;5038700;28;20190;-80
2022/08/19 02:14:30;;;;;;;3.07;1.90;;;21.60;99.90;;;;;;5028492;28;20249;-81
2022/08/19 02:16:56;;;;;;;1.93;1.70;;;21.50;99.90;;;;;;5035857;28;20210;-81
2022/08/19 02:19:22;;;;;;;1.10;1.10;;;21.40;99.90;;;;;;5036319;28;20187;-80
2022/08/19 02:21:47;;;;;;;1.67;1.23;;;21.40;99.90;;;;;;5038086;28;20246;-81
2022/08/19 02:24:13;;;;;;;1.20;1.17;;;21.20;99.90;;;;;;5035618;28;20867;-81
2022/08/19 02:26:39;;;;;;;1.00;1.00;;;21.30;99.90;;;;;;5031206;28;20233;-80
2022/08/19 02:29:05;;;;;;;3.37;2.53;;;21.30;99.90;;;;;;5031013;28;20187;-81
2022/08/19 02:31:30;;;;;;;1.50;1.40;;;21.30;99.90;;;;;;5037245;28;20187;-80
2022/08/19 02:33:57;;;;;;;1.73;1.40;;;21.40;99.90;;;;;;5034908;28;20584;-81
2022/08/19 02:36:24;;;;;;;2.10;1.70;;;21.30;99.90;;;;;;5035286;28;20210;-81
2022/08/19 02:38:50;;;;;;;2.17;1.97;;;21.20;99.90;;;;;;5037864;28;20188;-81
2022/08/19 02:41:19;;;;;;;2.47;1.57;;;21.20;99.90;;;;;;5037720;28;20235;-80
2022/08/19 02:43:45;;;;;;;1.33;1.23;;;21.20;99.90;;;;;;5035128;28;20179;-80
2022/08/19 02:46:21;;;;;;;2.73;1.70;;;21.10;99.90;;;;;;5031984;28;20213;-81
2022/08/19 02:48:59;;;;;;;3.87;2.70;;;21.00;99.90;;;;;;5031508;28;20198;-80
2022/08/19 02:51:30;;;;;;;2.70;1.70;;;20.90;99.90;;;;;;5032563;28;20205;-81
2022/08/19 02:53:56;;;;;;;2.60;2.10;;;20.90;99.90;;;;;;5037964;28;20191;-81
2022/08/19 02:56:24;;;;;;;1.27;1.27;;;20.90;99.90;;;;;;5033210;28;20240;-78
2022/08/19 02:58:49;;;;;;;1.23;1.13;;;20.90;99.90;;;;;;5030796;28;20195;-78
2022/08/19 03:01:30;;;;;;;2.17;1.93;;;20.80;99.90;;;;;;5033798;28;20636;-78
2022/08/19 03:03:57;;;;;;;4.20;2.07;;;20.70;99.90;;;;;;5026794;28;20186;-78
2022/08/19 03:06:23;;;;;;;3.30;1.97;;;20.70;99.90;;;;;;5038994;28;20214;-78
2022/08/19 03:08:49;;;;;;;2.40;1.67;;;20.70;99.90;;;;;;5032394;28;20183;-80
2022/08/19 03:11:25;;;;;;;2.07;1.90;;;20.60;99.90;;;;;;5032998;28;20190;-80
2022/08/19 03:13:51;;;;;;;2.20;1.40;;;20.60;99.90;;;;;;5034056;28;20179;-80
2022/08/19 03:16:18;;;;;;;2.90;1.40;;;20.60;99.90;;;;;;5039901;28;20206;-79
2022/08/19 03:18:43;;;;;;;2.30;1.83;;;20.60;99.90;;;;;;5029088;28;20645;-79
2022/08/19 03:21:09;;;;;;;1.43;1.33;;;20.50;99.90;;;;;;5030408;28;20182;-79
2022/08/19 03:23:35;;;;;;;1.57;1.47;;;20.50;99.90;;;;;;5034811;28;20186;-79
2022/08/19 03:26:05;;;;;;;5.23;1.53;;;20.50;99.90;;;;;;5027804;28;20210;-79
2022/08/19 03:28:32;;;;;;;2.07;1.67;;;20.50;99.90;;;;;;5036725;28;20205;-79
2022/08/19 03:31:03;;;;;;;1.87;1.77;;;20.40;99.90;;;;;;5035612;28;20186;-79
2022/08/19 03:33:30;;;;;;;2.23;1.50;;;20.50;99.90;;;;;;5032646;28;20640;-79
2022/08/19 03:36:01;;;;;;;2.83;1.43;;;20.50;99.90;;;;;;5027961;28;20221;-79
2022/08/19 03:38:26;;;;;;;1.80;1.30;;;20.40;99.90;;;;;;5032177;28;20205;-80
2022/08/19 03:40:52;;;;;;;1.50;1.40;;;20.50;99.90;;;;;;5032709;28;20197;-79
2022/08/19 03:43:18;;;;;;;1.23;1.13;;;20.60;99.90;;;;;;5034154;28;20182;-80
2022/08/19 03:45:43;;;;;;;1.17;1.07;;;20.60;99.90;;;;;;5033941;28;20202;-79
2022/08/19 03:48:09;;;;;;;1.17;0.90;;;20.70;99.90;;;;;;5027942;28;20960;-80
2022/08/19 03:50:39;;;;;;;4.23;1.37;;;20.60;99.90;;;;;;5028115;28;20189;-80
2022/08/19 03:53:04;;;;;;;1.50;1.40;;;20.60;99.90;;;;;;5036204;28;20392;-80
2022/08/19 03:55:30;;;;;;;2.00;1.60;;;20.50;99.90;;;;;;5033677;28;20695;-79
2022/08/19 03:57:56;;;;;;;2.60;1.47;;;20.50;99.90;;;;;;5032794;28;20202;-80
2022/08/19 04:00:21;;;;;;;1.27;1.03;;;20.60;99.90;;;;;;5034089;28;20816;-79
2022/08/19 04:02:47;;;;;;;2.67;2.47;;;20.50;99.90;;;;;;5033189;28;20179;-80
2022/08/19 04:05:13;;;;;;;1.77;1.30;;;20.60;99.90;;;;;;5026843;28;20191;-80
2022/08/19 04:07:39;;;;;;;1.90;1.43;;;20.60;99.90;;;;;;5020849;28;20321;-79
2022/08/19 04:10:05;;;;;;;2.77;1.63;;;20.30;99.90;;;;;;5039053;28;20216;-79
2022/08/19 04:12:31;;;;;;;3.10;1.80;;;20.30;99.90;;;;;;5031583;28;20261;-79
2022/08/19 04:14:58;;;;;;;1.60;1.40;;;20.20;99.90;;;;;;5025733;28;20187;-79
2022/08/19 04:17:23;;;;;;;2.97;1.43;;;20.20;99.90;;;;;;5037796;28;20216;-80
2022/08/19 04:19:49;;;;;;;1.37;1.27;;;20.10;99.90;;;;;;5031968;28;20266;-79
2022/08/19 04:22:14;;;;;;;1.57;0.90;;;20.10;99.90;;;;;;5030136;28;20182;-79
2022/08/19 04:24:40;;;;;;;1.37;1.20;;;20.10;99.90;;;;;;5032858;28;20265;-79
2022/08/19 04:27:06;;;;;;;3.00;1.63;;;20.10;99.90;;;;;;5031763;28;20232;-80
2022/08/19 04:29:31;;;;;;;4.27;2.53;;;19.90;99.90;;;;;;5034444;28;20186;-80
2022/08/19 04:31:58;;;;;;;3.90;1.30;;;19.80;99.90;;;;;;5028830;28;20221;-79
2022/08/19 04:34:26;;;;;;;1.63;1.53;;;19.80;99.90;;;;;;5036312;28;20683;-79
2022/08/19 04:36:56;;;;;;;1.00;1.00;;;19.80;99.90;;;;;;5039540;28;20701;-80
2022/08/19 04:42:38;;;;;;;2.50;1.47;;;19.80;99.90;;;;;;5035603;28;20201;-79
2022/08/19 04:44:56;;;;;;;1.57;1.07;;;20.20;99.90;;;;;;5024630;28;20179;-79
2022/08/19 04:47:22;;;;;;;1.43;1.10;;;20.30;99.90;;;;;;5028422;28;20202;-80
2022/08/19 04:49:48;;;;;;;1.50;0.83;;;20.30;99.90;;;;;;5033674;28;20197;-80
2022/08/19 04:52:14;;;;;;;1.50;1.40;;;20.30;99.90;;;;;;5030719;28;20179;-80
2022/08/19 04:54:39;;;;;;;3.40;2.30;;;20.20;99.90;;;;;;5033266;28;20324;-80
2022/08/19 04:57:09;;;;;;;1.50;1.30;;;20.10;99.90;;;;;;5030657;28;20206;-80
2022/08/19 04:59:36;;;;;;;7.03;1.27;;;20.20;99.90;;;;;;5029282;28;20694;-80
2022/08/19 05:02:02;;;;;;;1.80;1.70;;;20.30;99.90;;;;;;5032299;28;20238;-79
2022/08/19 05:04:31;;;;;;;1.33;1.13;;;20.20;99.90;;;;;;5028712;28;20653;-80
2022/08/19 05:06:56;;;;;;;1.37;1.27;;;20.30;99.90;;;;;;5031514;28;20197;-79
2022/08/19 05:09:22;;;;;;;3.37;1.97;;;20.30;99.90;;;;;;5033199;28;20719;-80
2022/08/19 05:11:49;;;;;;;1.60;1.40;;;20.30;99.90;;;;;;5029877;28;20266;-80
2022/08/19 05:14:15;;;;;;;1.60;1.50;;;20.40;99.90;;;;;;5030810;28;20669;-80
2022/08/19 05:16:40;;;;;;;2.07;1.47;;;20.60;99.90;;;;;;5039200;28;20255;-81
2022/08/19 05:24:35;;;;;;;1.60;1.50;;;20.70;99.90;;;;;;5033218;28;20197;-80
2022/08/19 05:27:02;;;;;;;1.87;1.77;;;20.80;99.90;;;;;;5031774;28;20213;-79
2022/08/19 05:29:29;;;;;;;1.60;1.17;;;20.80;99.90;;;;;;5025230;28;20210;-79
2022/08/19 05:31:55;;;;;;;2.43;1.63;;;20.90;99.90;;;;;;5026316;28;20286;-79
2022/08/19 05:34:25;;;;;;;1.50;1.40;;;20.80;99.90;;;;;;5030563;28;20192;-79
2022/08/19 05:36:56;;;;;;;1.17;1.10;;;21.00;99.90;;;;;;5027939;28;20735;-79
2022/08/19 05:39:21;;;;;;;1.43;1.33;;;21.00;99.90;;;;;;5035478;28;20587;-80
2022/08/19 05:41:52;;;;;;;1.67;1.57;;;21.20;99.90;;;;;;5026288;28;20186;-79
2022/08/19 05:44:19;;;;;;;2.93;1.13;;;21.30;99.90;;;;;;5026220;28;20198;-79
2022/08/19 05:46:46;;;;;;;2.57;1.80;;;21.50;99.90;;;;;;5022229;28;20352;-79
2022/08/19 05:49:14;;;;;;;1.37;1.27;;;21.70;99.90;;;;;;5027839;28;20201;-79
2022/08/19 05:51:40;;;;;;;1.97;1.83;;;21.70;99.90;;;;;;5025783;28;20182;-79
2022/08/19 05:54:06;;;;;;;2.83;1.30;;;21.90;99.90;;;;;;5026942;28;20182;-79
2022/08/19 05:56:37;;;;;;;1.17;1.17;;;22.20;99.90;;;;;;5029096;28;20574;-79
2022/08/19 05:59:08;;;;;;;1.53;1.10;;;22.50;99.90;;;;;;5030174;28;20534;-79
2022/08/19 06:01:34;;;;;;;1.43;1.33;;;22.70;99.90;;;;;;5029648;28;20263;-80
2022/08/19 06:04:00;;;;;;;1.93;1.57;;;22.70;99.90;;;;;;5030330;28;20186;-81
2022/08/19 06:06:25;;;;;;;1.10;0.83;;;22.80;99.90;;;;;;5031085;28;20203;-80
2022/08/19 06:08:51;;;;;;;0.60;0.60;;;22.80;99.90;;;;;;5032630;28;20225;-80
2022/08/19 06:11:44;;;;;;;0.87;0.87;;;23.00;99.90;;;;;;5039604;28;20175;-80
2022/08/19 06:14:22;;;;;;;1.60;1.47;;;23.00;99.90;;;;;;5047126;28;20257;-79
2022/08/19 06:16:48;;;;;;;1.13;1.03;;;23.00;99.90;;;;;;5021121;28;20301;-79
2022/08/19 06:19:16;;;;;;;0.83;0.83;;;23.20;99.90;;;;;;5022192;28;20195;-79
2022/08/19 06:21:44;;;;;;;3.50;1.30;;;23.30;99.90;;;;;;5023214;28;20175;-79
2022/08/19 06:24:12;;;;;;;0.70;0.70;;;23.30;99.90;;;;;;5024346;28;20178;-79
2022/08/19 06:26:39;;;;;;;0.80;0.80;;;23.40;99.90;;;;;;5026960;28;20575;-79
2022/08/19 06:29:07;;;;;;;0.80;0.80;;;23.70;99.90;;;;;;5027823;28;20183;-80
2022/08/19 06:31:34;;;;;;;1.03;0.90;;;23.60;99.90;;;;;;5020568;28;20183;-80
2022/08/19 06:34:04;;;;;;;1.23;1.13;;;23.70;99.90;;;;;;5031371;28;20178;-79
2022/08/19 06:36:33;;;;;;;3.17;1.50;;;23.70;99.90;;;;;;5032175;28;20198;-80
2022/08/19 06:39:11;;;;;;;1.67;1.20;;;23.70;99.90;;;;;;5032127;28;20174;-80
2022/08/19 06:41:39;;;;;;;4.23;1.73;;;23.80;99.90;;;;;;5032852;28;20175;-80
2022/08/19 06:44:07;;;;;;;1.33;1.27;;;23.90;99.90;;;;;;5034908;28;20179;-79
2022/08/19 06:46:33;;;;;;;1.50;1.40;;;23.80;99.90;;;;;;5033773;28;20198;-79
2022/08/19 06:48:59;;;;;;;0.80;0.80;;;23.90;99.90;;;;;;5020305;28;20209;-79
2022/08/19 06:51:24;;;;;;;1.50;1.03;;;24.10;99.90;;;;;;5032457;28;20193;-79
2022/08/19 06:53:52;;;;;;;0.60;0.60;;;24.10;99.90;;;;;;5031656;28;20171;-79
2022/08/19 06:56:21;;;;;;;0.87;0.87;;;24.10;99.90;;;;;;5039925;28;20300;-80
2022/08/19 06:58:52;;;;;;;1.20;1.20;;;24.30;99.90;;;;;;5031766;28;20170;-80
2022/08/19 07:01:19;;;;;;;1.00;0.90;;;24.30;99.90;;;;;;5039119;28;20205;-79
2022/08/19 07:03:46;;;;;;;1.47;1.37;;;24.20;99.90;;;;;;5037479;28;20178;-79
2022/08/19 07:06:15;;;;;;;0.60;0.60;;;24.40;99.90;;;;;;5021878;28;20194;-80
2022/08/19 07:08:42;;;;;;;1.07;0.80;;;24.70;99.90;;;;;;5032444;28;20213;-80
2022/08/19 07:11:09;;;;;;;1.03;0.77;;;24.80;99.90;;;;;;5031749;28;20551;-79
2022/08/19 07:13:36;;;;;;;0.70;0.70;;;24.70;99.90;;;;;;5032224;28;20559;-79
2022/08/19 07:16:22;;;;;;;2.13;2.03;;;24.60;99.90;;;;;;5032414;28;20217;-79
2022/08/19 07:18:49;;;;;;;1.07;0.97;;;24.50;99.90;;;;;;5023383;28;20244;-79
2022/08/19 07:21:26;;;;;;;1.03;0.87;;;24.50;99.90;;;;;;5028093;28;20637;-80
2022/08/19 07:23:52;;;;;;;3.57;0.80;;;24.80;99.90;;;;;;5031556;28;20744;-79
2022/08/19 07:26:26;;;;;;;0.53;0.53;;;24.80;99.90;;;;;;5038279;28;20206;-80
2022/08/19 07:28:53;;;;;;;1.00;0.87;;;25.00;99.90;;;;;;5035309;28;20185;-79
2022/08/19 07:31:21;;;;;;;2.70;1.33;;;25.00;99.90;;;;;;5028850;28;20232;-80
2022/08/19 07:33:49;;;;;;;0.73;0.67;;;24.30;99.90;;;;;;5033696;28;20193;-79
2022/08/19 07:36:18;;;;;;;1.03;1.03;;;24.70;99.90;;;;;;5032798;28;20198;-79
2022/08/19 07:38:47;;;;;;;0.60;0.60;;;24.90;99.90;;;;;;5035832;28;20575;-80
2022/08/19 07:41:16;;;;;;;0.93;0.87;;;25.10;99.90;;;;;;5029894;28;20367;-80
2022/08/19 07:43:43;;;;;;;1.73;1.00;;;25.30;99.90;;;;;;5038462;28;20520;-80
2022/08/19 07:46:10;;;;;;;1.07;0.93;;;25.20;99.90;;;;;;5027778;28;20691;-80
2022/08/19 07:48:36;;;;;;;0.97;0.90;;;25.30;99.90;;;;;;5034278;28;20559;-79
2022/08/19 07:51:07;;;;;;;1.43;1.27;;;25.40;99.90;;;;;;5031203;28;20191;-80
2022/08/19 07:53:33;;;;;;;1.77;1.00;;;25.20;99.90;;;;;;5018553;28;20186;-81
2022/08/19 07:56:03;;;;;;;3.30;1.80;;;25.30;99.90;;;;;;5029430;28;20206;-81
2022/08/19 07:58:31;;;;;;;1.40;1.30;;;25.10;99.90;;;;;;5023034;28;20207;-80
2022/08/19 08:00:59;;;;;;;2.13;1.13;;;25.20;99.90;;;;;;5022381;28;20194;-79
2022/08/19 08:09:10;;;;;;;1.43;1.33;;;25.10;99.90;;;;;;5033204;28;20191;-83
2022/08/19 08:09:15;;;;;;;0.93;0.93;;;25.60;99.90;;;;;;5025959;28;20950;-81
2022/08/19 08:11:48;;;;;;;1.60;1.50;;;25.80;99.90;;;;;;5024566;28;20183;-80
2022/08/19 08:14:19;;;;;;;0.83;0.83;;;25.70;99.90;;;;;;5033407;28;20617;-79
2022/08/19 08:16:46;;;;;;;1.20;1.10;;;25.50;99.90;;;;;;5021188;28;20243;-79
2022/08/19 08:19:13;;;;;;;1.40;1.13;;;25.70;99.90;;;;;;5037164;28;20236;-80
2022/08/19 08:21:38;;;;;;;1.53;1.20;;;25.90;99.90;;;;;;5029372;28;20609;-80
2022/08/19 08:24:04;;;;;;;0.87;0.87;;;25.70;99.90;;;;;;5025197;28;20195;-80
2022/08/19 08:26:29;;;;;;;1.23;1.13;;;25.90;99.90;;;;;;5023498;28;20249;-80
2022/08/19 08:28:56;;;;;;;1.43;1.40;;;25.70;99.90;;;;;;5024964;28;20189;-80
2022/08/19 08:31:21;;;;;;;3.67;1.90;;;25.50;99.90;;;;;;5029445;28;20594;-80
2022/08/19 08:33:47;;;;;;;4.57;2.43;;;25.10;99.90;;;;;;5026252;28;20182;-80
2022/08/19 08:36:13;;;;;;;1.87;1.77;;;24.80;99.90;;;;;;5026146;28;20202;-80
2022/08/19 08:38:40;;;;;;;2.13;1.93;;;25.00;99.90;;;;;;5024572;28;20198;-80
2022/08/19 08:41:27;;;;;;;2.60;1.60;;;24.80;99.90;;;;;;5029176;28;20236;-80
2022/08/19 08:43:55;;;;;;;2.87;1.53;;;25.00;99.90;;;;;;5024961;28;20227;-79
2022/08/19 08:46:48;;;;;;;1.23;1.13;;;25.00;99.90;;;;;;5031838;28;20690;-79
2022/08/19 08:49:44;;;;;;;1.30;1.20;;;24.80;99.90;;;;;;5030242;28;20253;-79
2022/08/19 08:52:23;;;;;;;1.60;1.50;;;25.00;99.90;;;;;;5033261;28;20263;-79
2022/08/19 08:54:51;;;;;;;2.73;1.67;;;25.20;99.90;;;;;;5027147;28;20204;-80
2022/08/19 08:57:53;;;;;;;8.10;2.20;;;25.20;99.90;;;;;;5032711;28;20202;-80
2022/08/19 09:00:24;;;;;;;1.73;1.20;;;25.00;99.90;;;;;;5027906;28;20194;-80
2022/08/19 09:02:50;;;;;;;2.13;1.60;;;25.30;99.90;;;;;;5031508;28;20182;-80
2022/08/19 09:05:16;;;;;;;2.20;2.00;;;25.70;99.90;;;;;;5037705;28;20540;-80
2022/08/19 09:07:47;;;;;;;1.47;1.37;;;26.00;99.90;;;;;;5043781;28;20178;-81
2022/08/19 09:10:42;;;;;;;1.50;1.40;;;26.10;99.90;;;;;;5042801;28;20360;-80
2022/08/19 09:13:50;;;;;;;1.30;1.13;;;26.10;99.90;;;;;;5047416;28;20193;-81
2022/08/19 09:16:21;;;;;;;1.80;1.70;;;25.90;99.90;;;;;;5042085;28;20202;-81
2022/08/19 09:18:53;;;;;;;2.00;1.33;;;25.60;99.90;;;;;;5046402;28;20177;-81
2022/08/19 09:21:22;;;;;;;1.30;1.17;;;26.40;99.90;;;;;;5035805;28;20619;-81
2022/08/19 09:23:48;;;;;;;2.67;2.17;;;26.20;99.90;;;;;;5041419;28;20182;-82
2022/08/19 09:26:17;;;;;;;2.47;1.83;;;26.50;99.90;;;;;;5050135;28;20201;-80
2022/08/19 09:28:45;;;;;;;2.60;2.37;;;26.50;99.90;;;;;;5041961;28;20178;-80
2022/08/19 09:31:17;;;;;;;2.43;1.80;;;26.30;99.90;;;;;;5049725;28;20193;-80
2022/08/19 09:33:45;;;;;;;1.80;1.67;;;26.40;99.90;;;;;;5045657;28;20178;-80
2022/08/19 09:36:13;;;;;;;2.27;2.07;;;26.60;99.90;;;;;;5043941;28;20206;-80
2022/08/19 09:38:42;;;;;;;3.43;1.53;;;26.80;99.90;;;;;;5048651;28;20222;-80
2022/08/19 09:41:12;;;;;;;2.20;1.80;;;27.10;99.90;;;;;;5043376;28;20179;-80
2022/08/19 09:43:38;;;;;;;2.27;2.07;;;27.20;99.90;;;;;;5049086;28;20174;-80
2022/08/19 09:46:06;;;;;;;3.00;2.20;;;27.10;99.90;;;;;;5038230;28;20253;-80
2022/08/19 09:48:32;;;;;;;3.13;2.50;;;27.30;99.90;;;;;;5045417;28;20224;-81
2022/08/19 09:51:10;;;;;;;1.30;1.20;;;27.30;99.90;;;;;;5037620;28;20179;-81
2022/08/19 09:53:36;;;;;;;3.67;2.53;;;27.50;99.90;;;;;;5027052;28;20178;-81
2022/08/19 09:56:03;;;;;;;3.77;2.57;;;26.80;99.90;;;;;;5039813;28;20226;-80
2022/08/19 09:58:29;;;;;;;3.40;1.97;;;26.90;99.90;;;;;;5036180;28;20202;-80
2022/08/19 10:00:57;;;;;;;1.83;1.70;;;27.30;99.90;;;;;;5040974;28;20175;-80
2022/08/19 10:03:23;;;;;;;2.33;1.80;;;27.40;99.90;;;;;;5040412;28;20171;-80
2022/08/19 10:05:49;;;;;;;2.03;1.60;;;27.60;99.90;;;;;;5044215;28;20195;-81
2022/08/19 10:08:22;;;;;;;1.87;1.67;;;27.30;99.90;;;;;;5039532;28;20683;-81
2022/08/19 10:10:50;;;;;;;2.20;1.80;;;26.90;99.90;;;;;;5046822;28;20185;-80
2022/08/19 10:13:20;;;;;;;2.43;1.80;;;27.20;99.90;;;;;;5044938;28;20186;-80
2022/08/19 10:15:45;;;;;;;2.80;1.20;;;27.50;99.90;;;;;;5044379;28;20578;-80
2022/08/19 10:18:11;;;;;;;2.20;1.87;;;27.80;99.90;;;;;;5042958;28;20195;-80
2022/08/19 10:20:36;;;;;;;2.37;2.17;;;27.70;99.90;;;;;;5045764;28;20613;-80
2022/08/19 10:23:02;;;;;;;3.53;1.80;;;27.60;99.90;;;;;;5047725;28;20182;-81
2022/08/19 10:25:28;;;;;;;1.50;1.40;;;27.50;99.90;;;;;;5046654;28;20185;-80
2022/08/19 10:27:54;;;;;;;1.70;1.60;;;27.60;99.90;;;;;;5045778;28;20902;-80
2022/08/19 10:30:20;;;;;;;2.67;1.53;;;27.50;99.90;;;;;;5044856;28;20269;-80
2022/08/19 10:32:45;;;;;;;2.83;2.17;;;27.50;99.90;;;;;;5044437;28;20197;-80
2022/08/19 10:35:12;;;;;;;2.60;1.93;;;27.60;99.90;;;;;;5037743;28;20557;-80
2022/08/19 10:37:38;;;;;;;2.10;1.90;;;27.50;99.90;;;;;;5041836;28;20288;-80
2022/08/19 10:40:10;;;;;;;1.97;1.87;;;27.60;99.90;;;;;;5036557;28;20606;-80
2022/08/19 10:42:36;;;;;;;1.83;1.70;;;27.80;99.90;;;;;;5043202;28;20201;-80
2022/08/19 10:45:05;;;;;;;1.53;1.43;;;27.80;99.90;;;;;;5040865;28;20216;-80
2022/08/19 10:47:31;;;;;;;1.03;1.00;;;28.00;99.90;;;;;;5045509;28;20679;-80
2022/08/19 10:52:48;;;;;;;1.80;1.50;;;28.00;99.90;;;;;;5040092;28;20190;-79
2022/08/19 10:57:58;;;;;;;3.20;1.17;;;27.90;99.90;;;;;;5036702;28;20244;-80
2022/08/19 11:00:24;;;;;;;1.63;1.50;;;27.90;99.90;;;;;;5047880;28;20178;-80
2022/08/19 11:02:50;;;;;;;1.50;1.40;;;28.40;99.90;;;;;;5038597;28;20170;-80
2022/08/19 11:05:17;;;;;;;5.77;1.53;;;28.50;99.90;;;;;;5038968;28;20183;-80
2022/08/19 11:07:44;;;;;;;4.65;1.65;;;28.80;99.90;;;;;;5030625;28;20186;-79
2022/08/19 11:10:12;;;;;;;1.10;1.05;;;29.10;99.90;;;;;;5032188;28;20647;-80
2022/08/19 11:12:39;;;;;;;1.77;1.52;;;28.80;99.90;;;;;;5029975;28;20208;-80
2022/08/19 11:15:07;;;;;;;1.13;1.10;;;28.30;99.90;;;;;;5030126;28;20228;-80
2022/08/19 11:17:33;;;;;;;1.65;1.45;;;28.20;99.90;;;;;;5031642;28;20202;-80
2022/08/19 11:20:02;;;;;;;1.30;1.20;;;27.60;99.90;;;;;;5038767;28;20201;-80
2022/08/19 11:22:28;;;;;;;1.07;0.97;;;27.40;99.90;;;;;;5027876;28;20186;-80
2022/08/19 11:24:55;;;;;;;0.80;0.80;;;27.90;99.90;;;;;;5031813;28;20190;-80
2022/08/19 11:27:21;;;;;;;2.80;1.97;;;28.50;99.90;;;;;;5030357;28;20199;-80
2022/08/19 11:29:46;;;;;;;2.33;2.13;;;28.70;99.90;;;;;;5027225;28;20546;-80
2022/08/19 11:32:12;;;;;;;1.00;1.00;;;28.60;99.90;;;;;;5027229;28;20256;-80
2022/08/19 11:34:39;;;;;;;1.25;1.15;;;29.00;99.90;;;;;;5040970;28;20268;-80
2022/08/19 11:37:05;;;;;;;2.17;1.98;;;28.20;99.90;;;;;;5029915;28;20691;-80
2022/08/19 11:39:32;;;;;;;1.37;1.20;;;28.30;99.90;;;;;;5027767;28;20268;-80
2022/08/19 11:41:58;;;;;;;1.73;1.25;;;28.30;99.90;;;;;;5023789;28;20703;-79
2022/08/19 11:44:25;;;;;;;1.65;1.35;;;28.80;99.90;;;;;;5030523;28;20224;-80
2022/08/19 11:46:52;;;;;;;1.50;1.40;;;28.40;99.90;;;;;;5027550;28;20202;-80
2022/08/19 11:49:19;;;;;;;1.17;1.08;;;28.70;99.90;;;;;;5032374;28;20244;-80
2022/08/19 11:51:45;;;;;;;1.48;1.38;;;28.30;99.90;;;;;;5032177;28;20231;-80
2022/08/19 11:54:12;;;;;;;0.90;0.90;;;28.60;99.90;;;;;;5029234;28;20191;-80
2022/08/19 11:56:38;;;;;;;0.93;0.93;;;29.00;99.90;;;;;;5034375;28;20198;-79
2022/08/19 11:59:04;;;;;;;1.25;0.73;;;28.90;99.90;;;;;;5022427;28;20178;-80
2022/08/19 12:01:31;;;;;;;2.65;1.13;;;29.00;99.90;;;;;;5028014;28;20181;-79
2022/08/19 12:03:57;;;;;;;1.87;1.27;;;28.90;99.90;;;;;;5026512;28;20181;-80
2022/08/19 12:06:29;;;;;;;1.50;1.40;;;29.40;99.90;;;;;;5030279;28;20209;-80
2022/08/19 12:08:56;;;;;;;3.67;1.20;;;29.70;99.90;;;;;;5024293;28;20264;-79
2022/08/19 12:11:23;;;;;;;0.90;0.90;;;29.50;99.90;;;;;;5028155;28;20266;-80
2022/08/19 12:13:49;;;;;;;1.58;1.27;;;28.90;99.90;;;;;;5026749;28;20182;-80
2022/08/19 12:16:18;;;;;;;1.48;1.38;;;29.10;99.90;;;;;;5030271;28;20208;-80
2022/08/19 12:18:47;;;;;;;1.77;1.13;;;29.50;99.90;;;;;;5030415;28;20207;-80
2022/08/19 12:21:14;;;;;;;2.33;1.70;;;29.70;99.90;;;;;;5023457;28;20241;-80
2022/08/19 12:23:41;;;;;;;1.88;1.77;;;29.70;99.90;;;;;;5028565;28;20174;-80
2022/08/19 12:26:10;;;;;;;1.30;1.20;;;29.30;99.90;;;;;;5022947;28;20293;-80
2022/08/19 12:28:36;;;;;;;0.93;0.93;;;29.10;99.90;;;;;;5025859;28;20232;-80
2022/08/19 12:31:01;;;;;;;2.38;1.30;;;29.30;99.90;;;;;;5027072;28;20186;-80
2022/08/19 12:33:28;;;;;;;1.35;1.15;;;29.30;99.90;;;;;;5034327;28;20304;-80
2022/08/19 12:35:53;;;;;;;0.90;0.85;;;29.40;99.90;;;;;;5028965;28;20213;-80
2022/08/19 12:38:19;;;;;;;1.90;1.65;;;29.50;99.90;;;;;;5039912;28;20201;-80
2022/08/19 12:40:47;;;;;;;0.88;0.88;;;30.00;99.90;;;;;;5024719;28;20175;-80
2022/08/19 12:43:15;;;;;;;0.93;0.93;;;29.80;99.90;;;;;;5026857;28;20697;-80
2022/08/19 12:45:42;;;;;;;1.55;1.40;;;29.90;99.90;;;;;;5030393;28;20669;-80
2022/08/19 12:48:07;;;;;;;1.70;1.60;;;29.90;99.90;;;;;;5030530;28;20186;-80
2022/08/19 12:50:33;;;;;;;1.23;1.17;;;29.10;99.90;;;;;;5035533;28;20272;-80
2022/08/19 12:52:58;;;;;;;1.20;0.98;;;29.40;99.90;;;;;;5024875;28;20269;-80
2022/08/19 12:55:24;;;;;;;1.10;0.90;;;29.70;99.90;;;;;;5032915;28;20174;-80
2022/08/19 12:57:50;;;;;;;3.20;1.20;;;30.20;99.90;;;;;;5029179;28;20193;-80
2022/08/19 13:00:20;;;;;;;1.25;1.20;;;30.20;99.90;;;;;;5029258;28;20178;-80
2022/08/19 13:02:49;;;;;;;1.13;1.02;;;29.90;99.90;;;;;;5030533;28;20175;-81
2022/08/19 13:05:19;;;;;;;1.45;1.25;;;29.80;99.90;;;;;;5023154;28;20258;-80
2022/08/19 13:07:45;;;;;;;0.70;0.70;;;30.40;99.90;;;;;;5028185;28;20233;-80
2022/08/19 13:10:15;;;;;;;1.80;1.20;;;30.70;99.90;;;;;;5034660;28;20189;-82